sensor_id;sensor_type;location;lat;lon;timestamp;pressure;altitude;pressure_sealevel;temperature;humidity
56400;BME280;42298;53.638;9.876;2023-02-28T00:00:38;102966.56;;;8.44;54.97
56400;BME280;42298;53.638;9.876;2023-02-28T00:03:04;102971.56;;;8.47;55.69
56400;BME280;42298;53.638;9.876;2023-02-28T00:05:29;102928.03;;;8.28;55.58
56400;BME280;42298;53.638;9.876;2023-02-28T00:07:57;102972.88;;;8.56;55.73
56400;BME280;42298;53.638;9.876;2023-02-28T00:10:25;102979.91;;;8.64;55.51
56400;BME280;42298;53.638;9.876;2023-02-28T00:12:52;102971.81;;;8.57;55.10
56400;BME280;42298;53.638;9.876;2023-02-28T00:15:19;102952.63;;;8.34;55.18
56400;BME280;42298;53.638;9.876;2023-02-28T00:17:46;102937.13;;;8.28;55.84
56400;BME280;42298;53.638;9.876;2023-02-28T00:20:12;102966.47;;;8.39;55.45
56400;BME280;42298;53.638;9.876;2023-02-28T00:22:43;102975.31;;;8.30;56.28
56400;BME280;42298;53.638;9.876;2023-02-28T00:25:16;102970.13;;;8.22;56.45
56400;BME280;42298;53.638;9.876;2023-02-28T00:27:42;102968.00;;;8.12;55.93
56400;BME280;42298;53.638;9.876;2023-02-28T00:30:10;102967.19;;;8.12;55.83
56400;BME280;42298;53.638;9.876;2023-02-28T00:32:36;102958.59;;;7.97;55.67
56400;BME280;42298;53.638;9.876;2023-02-28T00:35:03;102980.09;;;8.11;56.09
56400;BME280;42298;53.638;9.876;2023-02-28T00:37:29;102949.16;;;7.93;55.82
56400;BME280;42298;53.638;9.876;2023-02-28T00:39:54;102966.94;;;8.02;56.00
56400;BME280;42298;53.638;9.876;2023-02-28T00:42:20;102979.47;;;8.09;56.24
56400;BME280;42298;53.638;9.876;2023-02-28T00:44:45;102982.22;;;8.09;55.92
56400;BME280;42298;53.638;9.876;2023-02-28T00:47:10;102971.13;;;8.04;56.08
56400;BME280;42298;53.638;9.876;2023-02-28T00:49:35;102962.78;;;7.99;56.51
56400;BME280;42298;53.638;9.876;2023-02-28T00:52:01;102960.38;;;8.03;55.77
56400;BME280;42298;53.638;9.876;2023-02-28T00:54:26;102988.06;;;8.01;56.53
56400;BME280;42298;53.638;9.876;2023-02-28T00:56:52;102966.09;;;7.78;56.26
56400;BME280;42298;53.638;9.876;2023-02-28T00:59:17;102987.81;;;7.91;56.25
56400;BME280;42298;53.638;9.876;2023-02-28T01:01:44;102992.84;;;7.94;56.43
56400;BME280;42298;53.638;9.876;2023-02-28T01:04:10;102950.59;;;7.72;56.69
56400;BME280;42298;53.638;9.876;2023-02-28T01:06:35;102984.22;;;7.91;55.85
56400;BME280;42298;53.638;9.876;2023-02-28T01:09:02;102974.56;;;7.76;56.84
56400;BME280;42298;53.638;9.876;2023-02-28T01:11:28;102958.31;;;7.63;56.57
56400;BME280;42298;53.638;9.876;2023-02-28T01:13:53;102982.81;;;7.76;56.14
56400;BME280;42298;53.638;9.876;2023-02-28T01:16:19;102953.69;;;7.64;56.56
56400;BME280;42298;53.638;9.876;2023-02-28T01:18:44;102989.38;;;7.87;57.39
56400;BME280;42298;53.638;9.876;2023-02-28T01:21:12;102985.69;;;7.93;56.98
56400;BME280;42298;53.638;9.876;2023-02-28T01:23:39;102958.34;;;7.75;57.05
56400;BME280;42298;53.638;9.876;2023-02-28T01:26:06;102982.09;;;7.93;56.98
56400;BME280;42298;53.638;9.876;2023-02-28T01:28:31;102980.06;;;7.88;57.00
56400;BME280;42298;53.638;9.876;2023-02-28T01:30:57;102953.91;;;7.74;57.30
56400;BME280;42298;53.638;9.876;2023-02-28T01:33:22;102966.44;;;7.81;56.73
56400;BME280;42298;53.638;9.876;2023-02-28T01:35:47;102981.63;;;7.84;56.96
56400;BME280;42298;53.638;9.876;2023-02-28T01:38:13;102954.06;;;7.67;56.79
56400;BME280;42298;53.638;9.876;2023-02-28T01:40:38;102964.88;;;7.74;56.92
56400;BME280;42298;53.638;9.876;2023-02-28T01:43:09;102987.09;;;7.84;56.86
56400;BME280;42298;53.638;9.876;2023-02-28T01:45:43;102964.19;;;7.67;57.27
56400;BME280;42298;53.638;9.876;2023-02-28T01:48:09;102986.72;;;7.69;56.95
56400;BME280;42298;53.638;9.876;2023-02-28T01:50:39;102972.06;;;7.75;56.60
56400;BME280;42298;53.638;9.876;2023-02-28T01:53:08;102978.59;;;7.74;56.72
56400;BME280;42298;53.638;9.876;2023-02-28T01:55:36;102958.91;;;7.54;56.04
56400;BME280;42298;53.638;9.876;2023-02-28T01:58:04;102956.03;;;7.49;55.66
56400;BME280;42298;53.638;9.876;2023-02-28T02:00:31;102980.38;;;7.57;55.42
56400;BME280;42298;53.638;9.876;2023-02-28T02:02:59;102982.41;;;7.61;55.28
56400;BME280;42298;53.638;9.876;2023-02-28T02:05:28;102953.16;;;7.44;54.81
56400;BME280;42298;53.638;9.876;2023-02-28T02:07:58;102977.03;;;7.55;55.53
56400;BME280;42298;53.638;9.876;2023-02-28T02:10:33;102976.47;;;7.64;56.22
56400;BME280;42298;53.638;9.876;2023-02-28T02:18:39;102968.72;;;7.73;55.50
56400;BME280;42298;53.638;9.876;2023-02-28T02:21:24;102976.00;;;7.79;55.05
56400;BME280;42298;53.638;9.876;2023-02-28T02:24:17;102958.94;;;7.65;54.72
56400;BME280;42298;53.638;9.876;2023-02-28T02:30:08;102973.81;;;7.69;54.30
56400;BME280;42298;53.638;9.876;2023-02-28T02:35:29;102962.84;;;7.69;54.71
56400;BME280;42298;53.638;9.876;2023-02-28T02:38:16;102964.78;;;7.69;54.83
56400;BME280;42298;53.638;9.876;2023-02-28T02:40:56;102941.88;;;7.63;54.90
56400;BME280;42298;53.638;9.876;2023-02-28T02:43:29;102960.38;;;7.79;54.33
56400;BME280;42298;53.638;9.876;2023-02-28T02:46:20;102950.84;;;7.70;53.88
56400;BME280;42298;53.638;9.876;2023-02-28T02:48:47;102936.84;;;7.49;54.31
56400;BME280;42298;53.638;9.876;2023-02-28T02:51:18;102960.34;;;7.68;53.46
56400;BME280;42298;53.638;9.876;2023-02-28T02:53:50;102934.94;;;7.49;54.39
56400;BME280;42298;53.638;9.876;2023-02-28T02:56:20;102962.03;;;7.69;54.46
56400;BME280;42298;53.638;9.876;2023-02-28T02:58:49;102965.97;;;7.61;54.71
56400;BME280;42298;53.638;9.876;2023-02-28T03:01:21;102960.94;;;7.58;55.24
56400;BME280;42298;53.638;9.876;2023-02-28T03:04:00;102963.41;;;7.48;54.54
56400;BME280;42298;53.638;9.876;2023-02-28T03:06:28;102940.97;;;7.17;54.45
56400;BME280;42298;53.638;9.876;2023-02-28T03:08:53;102957.44;;;7.28;55.34
56400;BME280;42298;53.638;9.876;2023-02-28T03:11:19;102952.25;;;7.20;55.09
56400;BME280;42298;53.638;9.876;2023-02-28T03:13:52;102965.28;;;7.25;54.16
56400;BME280;42298;53.638;9.876;2023-02-28T03:24:31;102951.16;;;6.80;55.09
56400;BME280;42298;53.638;9.876;2023-02-28T03:27:02;102968.75;;;6.73;55.46
56400;BME280;42298;53.638;9.876;2023-02-28T03:29:34;102968.06;;;6.77;55.39
56400;BME280;42298;53.638;9.876;2023-02-28T03:34:36;102972.47;;;6.60;55.97
56400;BME280;42298;53.638;9.876;2023-02-28T03:37:08;102966.41;;;6.58;56.44
56400;BME280;42298;53.638;9.876;2023-02-28T03:40:02;102970.44;;;6.56;56.69
56400;BME280;42298;53.638;9.876;2023-02-28T03:42:34;102982.75;;;6.47;57.06
56400;BME280;42298;53.638;9.876;2023-02-28T03:45:04;102953.31;;;6.24;57.39
56400;BME280;42298;53.638;9.876;2023-02-28T03:48:01;102950.81;;;6.23;56.89
56400;BME280;42298;53.638;9.876;2023-02-28T03:53:06;102977.44;;;6.34;56.69
56400;BME280;42298;53.638;9.876;2023-02-28T03:55:40;102976.34;;;6.35;56.35
56400;BME280;42298;53.638;9.876;2023-02-28T04:00:46;102970.28;;;6.33;56.76
56400;BME280;42298;53.638;9.876;2023-02-28T04:03:13;102966.38;;;6.04;57.01
56400;BME280;42298;53.638;9.876;2023-02-28T04:05:53;102992.75;;;6.17;57.48
56400;BME280;42298;53.638;9.876;2023-02-28T04:08:20;102975.94;;;5.95;57.27
56400;BME280;42298;53.638;9.876;2023-02-28T04:11:00;102958.16;;;5.79;56.56
56400;BME280;42298;53.638;9.876;2023-02-28T04:13:27;102974.66;;;5.73;56.58
56400;BME280;42298;53.638;9.876;2023-02-28T04:15:52;102990.88;;;5.68;57.26
56400;BME280;42298;53.638;9.876;2023-02-28T04:18:17;102959.34;;;5.41;57.66
56400;BME280;42298;53.638;9.876;2023-02-28T04:20:43;102968.97;;;5.43;57.90
56400;BME280;42298;53.638;9.876;2023-02-28T04:23:08;102987.84;;;5.51;58.04
56400;BME280;42298;53.638;9.876;2023-02-28T04:25:34;102992.53;;;5.44;57.58
56400;BME280;42298;53.638;9.876;2023-02-28T04:27:59;102968.72;;;5.20;57.79
56400;BME280;42298;53.638;9.876;2023-02-28T04:30:24;102986.34;;;5.24;57.98
56400;BME280;42298;53.638;9.876;2023-02-28T04:32:49;102984.91;;;5.22;57.62
56400;BME280;42298;53.638;9.876;2023-02-28T04:35:15;102962.53;;;5.07;57.47
56400;BME280;42298;53.638;9.876;2023-02-28T04:37:40;102971.91;;;5.17;57.83
56400;BME280;42298;53.638;9.876;2023-02-28T04:40:06;102985.81;;;5.09;57.68
56400;BME280;42298;53.638;9.876;2023-02-28T04:42:32;102984.38;;;5.00;58.16
56400;BME280;42298;53.638;9.876;2023-02-28T04:45:01;102990.03;;;5.05;58.36
56400;BME280;42298;53.638;9.876;2023-02-28T04:47:27;102996.13;;;5.07;58.32
56400;BME280;42298;53.638;9.876;2023-02-28T04:49:52;102981.50;;;4.95;58.10
56400;BME280;42298;53.638;9.876;2023-02-28T04:52:18;102967.88;;;4.89;57.99
56400;BME280;42298;53.638;9.876;2023-02-28T04:54:44;102975.41;;;4.93;57.87
56400;BME280;42298;53.638;9.876;2023-02-28T04:57:12;102979.44;;;4.84;58.88
56400;BME280;42298;53.638;9.876;2023-02-28T04:59:38;102993.66;;;4.93;59.04
56400;BME280;42298;53.638;9.876;2023-02-28T05:02:03;102966.47;;;4.73;59.53
56400;BME280;42298;53.638;9.876;2023-02-28T05:04:35;102969.25;;;4.67;59.64
56400;BME280;42298;53.638;9.876;2023-02-28T05:07:02;102999.19;;;4.80;59.62
56400;BME280;42298;53.638;9.876;2023-02-28T05:09:28;103001.53;;;4.76;59.68
56400;BME280;42298;53.638;9.876;2023-02-28T05:11:53;103006.59;;;4.73;59.34
56400;BME280;42298;53.638;9.876;2023-02-28T05:14:19;103005.59;;;4.61;58.21
56400;BME280;42298;53.638;9.876;2023-02-28T05:16:44;102992.22;;;4.40;58.68
56400;BME280;42298;53.638;9.876;2023-02-28T05:19:10;102996.63;;;4.41;59.10
56400;BME280;42298;53.638;9.876;2023-02-28T05:21:40;102967.91;;;4.25;59.11
56400;BME280;42298;53.638;9.876;2023-02-28T05:24:09;103003.94;;;4.40;59.49
56400;BME280;42298;53.638;9.876;2023-02-28T05:26:37;102999.34;;;4.34;59.98
56400;BME280;42298;53.638;9.876;2023-02-28T05:29:03;102969.44;;;4.02;60.28
56400;BME280;42298;53.638;9.876;2023-02-28T05:31:28;103011.97;;;4.22;60.46
56400;BME280;42298;53.638;9.876;2023-02-28T05:33:54;102986.41;;;3.97;60.57
56400;BME280;42298;53.638;9.876;2023-02-28T05:36:20;103022.25;;;4.14;60.38
56400;BME280;42298;53.638;9.876;2023-02-28T05:38:48;102998.59;;;4.01;59.70
56400;BME280;42298;53.638;9.876;2023-02-28T05:41:14;103018.28;;;4.03;59.88
56400;BME280;42298;53.638;9.876;2023-02-28T05:43:40;103014.75;;;4.03;59.83
56400;BME280;42298;53.638;9.876;2023-02-28T05:46:06;102998.59;;;3.94;59.65
56400;BME280;42298;53.638;9.876;2023-02-28T05:48:34;102983.91;;;3.76;58.91
56400;BME280;42298;53.638;9.876;2023-02-28T05:51:00;103005.09;;;3.80;59.60
56400;BME280;42298;53.638;9.876;2023-02-28T05:53:25;102997.16;;;3.72;60.99
56400;BME280;42298;53.638;9.876;2023-02-28T05:55:52;103014.75;;;3.83;61.26
56400;BME280;42298;53.638;9.876;2023-02-28T05:58:17;103010.53;;;3.67;60.37
56400;BME280;42298;53.638;9.876;2023-02-28T06:00:42;102988.53;;;3.49;60.51
56400;BME280;42298;53.638;9.876;2023-02-28T06:03:07;103026.06;;;3.73;60.21
56400;BME280;42298;53.638;9.876;2023-02-28T06:05:33;103012.44;;;3.80;60.51
56400;BME280;42298;53.638;9.876;2023-02-28T06:07:58;103017.91;;;3.80;60.00
56400;BME280;42298;53.638;9.876;2023-02-28T06:10:24;103019.38;;;3.69;60.74
56400;BME280;42298;53.638;9.876;2023-02-28T06:12:49;103023.97;;;3.69;62.23
56400;BME280;42298;53.638;9.876;2023-02-28T06:15:15;103016.22;;;3.66;61.90
56400;BME280;42298;53.638;9.876;2023-02-28T06:17:42;103013.25;;;3.61;61.92
56400;BME280;42298;53.638;9.876;2023-02-28T06:20:09;103018.94;;;3.66;62.01
56400;BME280;42298;53.638;9.876;2023-02-28T06:22:36;103021.84;;;3.58;60.53
56400;BME280;42298;53.638;9.876;2023-02-28T06:25:03;103030.03;;;3.64;61.63
56400;BME280;42298;53.638;9.876;2023-02-28T06:27:28;103019.13;;;3.58;61.46
56400;BME280;42298;53.638;9.876;2023-02-28T06:29:55;103025.03;;;3.68;61.57
56400;BME280;42298;53.638;9.876;2023-02-28T06:32:23;102996.47;;;3.44;59.95
56400;BME280;42298;53.638;9.876;2023-02-28T06:34:48;103028.97;;;3.52;59.73
56400;BME280;42298;53.638;9.876;2023-02-28T06:37:15;103009.44;;;3.29;60.81
56400;BME280;42298;53.638;9.876;2023-02-28T06:39:42;103032.13;;;3.49;61.70
56400;BME280;42298;53.638;9.876;2023-02-28T06:42:07;103031.06;;;3.50;62.20
56400;BME280;42298;53.638;9.876;2023-02-28T06:44:33;103008.22;;;3.45;62.11
56400;BME280;42298;53.638;9.876;2023-02-28T06:47:01;103044.31;;;3.66;61.90
56400;BME280;42298;53.638;9.876;2023-02-28T06:49:28;103010.94;;;3.45;62.05
56400;BME280;42298;53.638;9.876;2023-02-28T06:51:54;103045.34;;;3.65;62.11
56400;BME280;42298;53.638;9.876;2023-02-28T06:54:19;103045.13;;;3.73;61.93
56400;BME280;42298;53.638;9.876;2023-02-28T06:56:44;103043.69;;;3.90;62.18
56400;BME280;42298;53.638;9.876;2023-02-28T06:59:09;103036.78;;;4.01;61.92
56400;BME280;42298;53.638;9.876;2023-02-28T07:01:35;103010.97;;;4.10;62.03
56400;BME280;42298;53.638;9.876;2023-02-28T07:04:00;103050.50;;;4.58;61.25
56400;BME280;42298;53.638;9.876;2023-02-28T07:06:26;103012.50;;;4.57;60.62
56400;BME280;42298;53.638;9.876;2023-02-28T07:08:52;103041.56;;;4.95;59.29
56400;BME280;42298;53.638;9.876;2023-02-28T07:11:19;103042.72;;;5.12;59.50
56400;BME280;42298;53.638;9.876;2023-02-28T07:13:45;103044.50;;;5.31;58.48
56400;BME280;42298;53.638;9.876;2023-02-28T07:16:12;103055.97;;;5.46;58.66
56400;BME280;42298;53.638;9.876;2023-02-28T07:18:38;103038.88;;;5.57;58.31
56400;BME280;42298;53.638;9.876;2023-02-28T07:21:06;103061.94;;;5.99;56.89
56400;BME280;42298;53.638;9.876;2023-02-28T07:23:32;103064.91;;;5.98;56.34
56400;BME280;42298;53.638;9.876;2023-02-28T07:25:57;103070.66;;;6.14;57.00
56400;BME280;42298;53.638;9.876;2023-02-28T07:28:23;103063.28;;;6.15;56.45
56400;BME280;42298;53.638;9.876;2023-02-28T07:30:48;103053.41;;;6.14;55.99
56400;BME280;42298;53.638;9.876;2023-02-28T07:33:14;103063.34;;;6.33;56.32
56400;BME280;42298;53.638;9.876;2023-02-28T07:35:40;103046.91;;;6.33;56.02
56400;BME280;42298;53.638;9.876;2023-02-28T07:38:06;103034.00;;;6.40;55.84
56400;BME280;42298;53.638;9.876;2023-02-28T07:40:33;103053.94;;;6.65;54.91
56400;BME280;42298;53.638;9.876;2023-02-28T07:42:59;103067.28;;;6.79;55.05
56400;BME280;42298;53.638;9.876;2023-02-28T07:45:25;103053.47;;;6.86;54.42
56400;BME280;42298;53.638;9.876;2023-02-28T07:47:51;103063.97;;;7.07;55.08
56400;BME280;42298;53.638;9.876;2023-02-28T07:50:16;103043.13;;;7.06;53.62
56400;BME280;42298;53.638;9.876;2023-02-28T07:52:42;103069.22;;;7.38;52.80
56400;BME280;42298;53.638;9.876;2023-02-28T07:55:09;103073.44;;;7.40;51.76
56400;BME280;42298;53.638;9.876;2023-02-28T07:57:34;103080.19;;;7.38;52.50
56400;BME280;42298;53.638;9.876;2023-02-28T08:00:00;103076.94;;;7.59;52.70
56400;BME280;42298;53.638;9.876;2023-02-28T08:02:25;103053.03;;;7.66;52.16
56400;BME280;42298;53.638;9.876;2023-02-28T08:04:51;103081.00;;;7.98;50.92
56400;BME280;42298;53.638;9.876;2023-02-28T08:07:17;103067.66;;;8.13;50.02
56400;BME280;42298;53.638;9.876;2023-02-28T08:09:44;103074.44;;;8.22;50.62
56400;BME280;42298;53.638;9.876;2023-02-28T08:12:10;103035.72;;;8.30;50.64
56400;BME280;42298;53.638;9.876;2023-02-28T08:14:36;103048.63;;;8.41;49.41
56400;BME280;42298;53.638;9.876;2023-02-28T08:17:02;103071.91;;;8.50;48.68
56400;BME280;42298;53.638;9.876;2023-02-28T08:19:28;103076.44;;;8.56;49.82
56400;BME280;42298;53.638;9.876;2023-02-28T08:21:54;103071.13;;;8.77;49.84
56400;BME280;42298;53.638;9.876;2023-02-28T08:24:19;103051.16;;;8.93;49.10
56400;BME280;42298;53.638;9.876;2023-02-28T08:26:45;103078.09;;;9.47;47.74
56400;BME280;42298;53.638;9.876;2023-02-28T08:29:10;103056.59;;;9.44;47.61
56400;BME280;42298;53.638;9.876;2023-02-28T08:31:35;103061.69;;;9.52;46.61
56400;BME280;42298;53.638;9.876;2023-02-28T08:34:11;103079.25;;;10.08;47.35
56400;BME280;42298;53.638;9.876;2023-02-28T08:36:37;103053.69;;;10.29;45.29
56400;BME280;42298;53.638;9.876;2023-02-28T08:39:03;103057.53;;;10.44;45.60
56400;BME280;42298;53.638;9.876;2023-02-28T08:41:29;103087.19;;;10.75;45.24
56400;BME280;42298;53.638;9.876;2023-02-28T08:43:54;103060.13;;;10.72;44.08
56400;BME280;42298;53.638;9.876;2023-02-28T08:46:20;103081.13;;;10.95;42.71
56400;BME280;42298;53.638;9.876;2023-02-28T08:48:45;103066.72;;;10.88;43.21
56400;BME280;42298;53.638;9.876;2023-02-28T08:51:13;103080.75;;;11.29;43.61
56400;BME280;42298;53.638;9.876;2023-02-28T08:53:39;103086.19;;;11.46;41.46
56400;BME280;42298;53.638;9.876;2023-02-28T08:56:07;103072.91;;;11.43;42.24
56400;BME280;42298;53.638;9.876;2023-02-28T08:58:34;103077.91;;;11.46;41.75
56400;BME280;42298;53.638;9.876;2023-02-28T09:01:00;103080.91;;;11.66;41.61
56400;BME280;42298;53.638;9.876;2023-02-28T09:03:26;103088.78;;;11.79;40.84
56400;BME280;42298;53.638;9.876;2023-02-28T09:05:57;103095.28;;;11.95;39.51
56400;BME280;42298;53.638;9.876;2023-02-28T09:08:24;103065.22;;;11.98;40.00
56400;BME280;42298;53.638;9.876;2023-02-28T09:10:50;103088.56;;;12.17;37.86
56400;BME280;42298;53.638;9.876;2023-02-28T09:13:16;103088.31;;;12.19;38.64
56400;BME280;42298;53.638;9.876;2023-02-28T09:15:41;103091.06;;;12.19;37.45
56400;BME280;42298;53.638;9.876;2023-02-28T09:18:07;103090.47;;;12.43;38.57
56400;BME280;42298;53.638;9.876;2023-02-28T09:20:32;103069.25;;;12.54;38.25
56400;BME280;42298;53.638;9.876;2023-02-28T09:22:57;103089.91;;;12.88;38.50
56400;BME280;42298;53.638;9.876;2023-02-28T09:25:22;103068.91;;;12.92;37.75
56400;BME280;42298;53.638;9.876;2023-02-28T09:27:48;103064.78;;;12.94;35.97
56400;BME280;42298;53.638;9.876;2023-02-28T09:30:14;103096.44;;;13.13;35.82
56400;BME280;42298;53.638;9.876;2023-02-28T09:32:39;103076.47;;;13.01;36.60
56400;BME280;42298;53.638;9.876;2023-02-28T09:35:05;103100.72;;;12.89;35.80
56400;BME280;42298;53.638;9.876;2023-02-28T09:37:30;103099.06;;;12.93;35.50
56400;BME280;42298;53.638;9.876;2023-02-28T09:39:56;103094.38;;;12.94;37.43
56400;BME280;42298;53.638;9.876;2023-02-28T09:42:27;103096.44;;;13.13;35.14
56400;BME280;42298;53.638;9.876;2023-02-28T09:44:55;103088.16;;;13.23;34.95
56400;BME280;42298;53.638;9.876;2023-02-28T09:47:34;103101.50;;;13.36;35.17
56400;BME280;42298;53.638;9.876;2023-02-28T09:50:35;103094.38;;;13.56;35.49
56400;BME280;42298;53.638;9.876;2023-02-28T09:53:13;103077.22;;;13.59;35.11
56400;BME280;42298;53.638;9.876;2023-02-28T09:55:45;103097.22;;;13.81;35.13
56400;BME280;42298;53.638;9.876;2023-02-28T09:58:22;103092.78;;;13.90;35.29
56400;BME280;42298;53.638;9.876;2023-02-28T10:00:57;103086.16;;;13.86;34.60
56400;BME280;42298;53.638;9.876;2023-02-28T10:03:47;103109.72;;;14.03;34.84
56400;BME280;42298;53.638;9.876;2023-02-28T10:06:20;103116.56;;;13.76;34.77
56400;BME280;42298;53.638;9.876;2023-02-28T10:11:40;103108.28;;;13.91;35.07
56400;BME280;42298;53.638;9.876;2023-02-28T10:14:15;103107.78;;;14.04;35.18
56400;BME280;42298;53.638;9.876;2023-02-28T10:16:46;103103.25;;;13.63;34.05
56400;BME280;42298;53.638;9.876;2023-02-28T10:22:00;103087.94;;;13.35;35.88
56400;BME280;42298;53.638;9.876;2023-02-28T10:24:39;103098.78;;;13.52;35.45
56400;BME280;42298;53.638;9.876;2023-02-28T10:27:17;103106.06;;;13.68;35.69
56400;BME280;42298;53.638;9.876;2023-02-28T10:32:24;103100.25;;;13.79;34.47
56400;BME280;42298;53.638;9.876;2023-02-28T10:35:06;103092.78;;;13.90;33.93
56400;BME280;42298;53.638;9.876;2023-02-28T10:37:32;103097.75;;;13.88;34.72
56400;BME280;42298;53.638;9.876;2023-02-28T10:40:03;103090.28;;;13.83;33.78
56400;BME280;42298;53.638;9.876;2023-02-28T10:42:30;103093.88;;;13.79;33.27
56400;BME280;42298;53.638;9.876;2023-02-28T10:45:13;103102.16;;;13.69;35.01
56400;BME280;42298;53.638;9.876;2023-02-28T10:47:51;103078.59;;;13.61;35.04
56400;BME280;42298;53.638;9.876;2023-02-28T10:50:43;103098.59;;;13.88;34.79
56400;BME280;42298;53.638;9.876;2023-02-28T10:59:46;103101.88;;;13.60;35.54
56400;BME280;42298;53.638;9.876;2023-02-28T11:01:46;103105.03;;;13.22;33.82
56400;BME280;42298;53.638;9.876;2023-02-28T11:06:42;103092.53;;;13.04;34.88
56400;BME280;42298;53.638;9.876;2023-02-28T11:09:26;103094.19;;;13.00;34.78
56400;BME280;42298;53.638;9.876;2023-02-28T11:11:54;103065.81;;;12.83;34.35
56400;BME280;42298;53.638;9.876;2023-02-28T11:14:28;103095.03;;;13.06;34.79
56400;BME280;42298;53.638;9.876;2023-02-28T11:16:58;103050.59;;;12.81;34.88
56400;BME280;42298;53.638;9.876;2023-02-28T11:19:28;103069.16;;;12.90;34.22
56400;BME280;42298;53.638;9.876;2023-02-28T11:22:00;103090.66;;;13.20;35.74
56400;BME280;42298;53.638;9.876;2023-02-28T11:24:33;103086.84;;;13.36;34.61
56400;BME280;42298;53.638;9.876;2023-02-28T11:27:00;103063.34;;;13.43;34.91
56400;BME280;42298;53.638;9.876;2023-02-28T11:29:30;103098.28;;;13.65;35.33
56400;BME280;42298;53.638;9.876;2023-02-28T11:34:31;103084.25;;;13.14;34.24
56400;BME280;42298;53.638;9.876;2023-02-28T11:37:03;103069.47;;;12.94;34.78
56400;BME280;42298;53.638;9.876;2023-02-28T11:39:31;103075.16;;;13.14;35.00
56400;BME280;42298;53.638;9.876;2023-02-28T11:48:27;103038.25;;;12.10;36.01
56400;BME280;42298;53.638;9.876;2023-02-28T11:56:37;103035.84;;;11.87;35.59
56400;BME280;42298;53.638;9.876;2023-02-28T12:02:17;103049.03;;;11.80;35.98
56400;BME280;42298;53.638;9.876;2023-02-28T12:05:16;103039.19;;;11.89;35.32
56400;BME280;42298;53.638;9.876;2023-02-28T12:08:09;103035.75;;;12.09;36.25
56400;BME280;42298;53.638;9.876;2023-02-28T12:11:03;103044.91;;;12.14;36.81
56400;BME280;42298;53.638;9.876;2023-02-28T12:13:59;103034.44;;;12.16;36.02
56400;BME280;42298;53.638;9.876;2023-02-28T12:16:47;103040.91;;;12.32;36.12
56400;BME280;42298;53.638;9.876;2023-02-28T12:19:32;103027.63;;;12.29;35.98
56400;BME280;42298;53.638;9.876;2023-02-28T12:22:15;103021.28;;;12.33;35.18
56400;BME280;42298;53.638;9.876;2023-02-28T12:27:39;103021.31;;;12.38;36.67
56400;BME280;42298;53.638;9.876;2023-02-28T12:32:42;103002.56;;;12.45;36.66
56400;BME280;42298;53.638;9.876;2023-02-28T12:37:41;102974.66;;;12.42;35.81
56400;BME280;42298;53.638;9.876;2023-02-28T12:40:42;103011.53;;;12.67;36.13
56400;BME280;42298;53.638;9.876;2023-02-28T12:43:12;102952.25;;;12.43;36.05
56400;BME280;42298;53.638;9.876;2023-02-28T12:45:51;102993.81;;;12.63;36.70
56400;BME280;42298;53.638;9.876;2023-02-28T12:48:27;102976.06;;;12.54;35.23
56400;BME280;42298;53.638;9.876;2023-02-28T12:50:55;102957.19;;;12.36;34.86
56400;BME280;42298;53.638;9.876;2023-02-28T12:56:48;102982.25;;;12.20;34.98
56400;BME280;42298;53.638;9.876;2023-02-28T12:59:33;102952.28;;;12.02;34.89
56400;BME280;42298;53.638;9.876;2023-02-28T13:02:21;102968.66;;;12.13;35.89
56400;BME280;42298;53.638;9.876;2023-02-28T13:05:05;102975.34;;;12.22;35.53
56400;BME280;42298;53.638;9.876;2023-02-28T13:08:17;102943.50;;;12.10;36.00
56400;BME280;42298;53.638;9.876;2023-02-28T13:10:48;102926.22;;;11.88;35.06
56400;BME280;42298;53.638;9.876;2023-02-28T13:13:21;102925.63;;;11.81;35.85
56400;BME280;42298;53.638;9.876;2023-02-28T13:16:08;102966.06;;;11.97;34.98
56400;BME280;42298;53.638;9.876;2023-02-28T13:18:38;102960.72;;;11.85;35.60
56400;BME280;42298;53.638;9.876;2023-02-28T13:21:07;102957.31;;;11.73;35.59
56400;BME280;42298;53.638;9.876;2023-02-28T13:26:12;102904.97;;;11.25;35.85
56400;BME280;42298;53.638;9.876;2023-02-28T13:28:57;102943.25;;;11.48;35.51
56400;BME280;42298;53.638;9.876;2023-02-28T13:31:24;102934.88;;;11.38;35.91
56400;BME280;42298;53.638;9.876;2023-02-28T13:36:31;102936.41;;;11.55;35.93
56400;BME280;42298;53.638;9.876;2023-02-28T14:00:15;102942.59;;;11.09;35.84
56400;BME280;42298;53.638;9.876;2023-02-28T14:05:30;102926.09;;;10.88;36.48
56400;BME280;42298;53.638;9.876;2023-02-28T14:07:59;102939.31;;;10.86;36.84
56400;BME280;42298;53.638;9.876;2023-02-28T14:10:50;102951.88;;;10.98;36.73
56400;BME280;42298;53.638;9.876;2023-02-28T14:16:00;102955.59;;;10.87;36.19
56400;BME280;42298;53.638;9.876;2023-02-28T14:21:01;102949.50;;;10.85;37.73
56400;BME280;42298;53.638;9.876;2023-02-28T14:37:51;102927.28;;;10.49;36.65
56400;BME280;42298;53.638;9.876;2023-02-28T14:40:29;102950.78;;;10.78;36.59
56400;BME280;42298;53.638;9.876;2023-02-28T14:42:59;102916.00;;;10.50;37.13
56400;BME280;42298;53.638;9.876;2023-02-28T14:45:27;102900.50;;;10.44;37.78
56400;BME280;42298;53.638;9.876;2023-02-28T14:47:54;102951.25;;;10.70;37.83
56400;BME280;42298;53.638;9.876;2023-02-28T14:50:22;102919.41;;;10.57;37.25
56400;BME280;42298;53.638;9.876;2023-02-28T14:52:52;102912.91;;;10.47;37.23
56400;BME280;42298;53.638;9.876;2023-02-28T14:55:19;102888.31;;;10.40;37.84
56400;BME280;42298;53.638;9.876;2023-02-28T14:57:53;102902.50;;;10.49;37.64
56400;BME280;42298;53.638;9.876;2023-02-28T15:00:26;102919.13;;;10.59;38.23
56400;BME280;42298;53.638;9.876;2023-02-28T15:02:53;102927.91;;;10.56;38.06
56400;BME280;42298;53.638;9.876;2023-02-28T15:05:33;102942.97;;;10.70;38.05
56400;BME280;42298;53.638;9.876;2023-02-28T15:08:12;102937.50;;;10.75;38.19
56400;BME280;42298;53.638;9.876;2023-02-28T15:10:45;102921.97;;;10.64;38.90